createdAt,value
2017-10-01T00:00:50.937Z,13.85
2017-10-01T00:01:57.123Z,13.86
2017-10-01T00:03:04.265Z,13.91
2017-10-01T00:04:10.768Z,13.81
2017-10-01T00:05:17.697Z,13.87
2017-10-01T00:06:24.049Z,13.94
2017-10-01T00:07:30.199Z,13.98
2017-10-01T00:08:36.392Z,13.82
2017-10-01T00:09:42.609Z,13.80
2017-10-01T00:10:49.068Z,13.75
2017-10-01T00:11:57.928Z,13.83
2017-10-01T00:13:04.064Z,13.87
2017-10-01T00:14:09.883Z,13.90
2017-10-01T00:15:16.924Z,13.86
2017-10-01T00:16:23.062Z,13.93
2017-10-01T00:17:29.179Z,13.74
2017-10-01T00:18:35.822Z,13.86
2017-10-01T00:19:42.920Z,13.90
2017-10-01T00:20:49.193Z,13.89
2017-10-01T00:21:56.142Z,13.93
2017-10-01T00:23:02.298Z,13.90
2017-10-01T00:24:09.631Z,13.87
2017-10-01T00:25:16.179Z,13.92
2017-10-01T00:26:22.693Z,13.88
2017-10-01T00:27:28.873Z,13.82
2017-10-01T00:28:35.113Z,13.67
2017-10-01T00:29:41.747Z,13.71
2017-10-01T00:30:47.956Z,13.80
2017-10-01T00:31:54.151Z,13.82
2017-10-01T00:33:00.298Z,13.79
2017-10-01T00:34:07.368Z,13.75
2017-10-01T00:35:13.835Z,13.78
2017-10-01T00:36:20.670Z,13.79
2017-10-01T00:37:26.655Z,13.75
2017-10-01T00:38:32.425Z,13.77
2017-10-01T00:39:38.638Z,13.77
2017-10-01T00:40:44.417Z,13.65
2017-10-01T00:41:50.631Z,13.68
2017-10-01T00:43:01.332Z,13.73
2017-10-01T00:44:07.439Z,13.64
2017-10-01T00:45:13.987Z,13.68
2017-10-01T00:46:20.515Z,13.71
2017-10-01T00:47:27.572Z,13.68
2017-10-01T00:48:33.319Z,13.70
2017-10-01T00:49:39.118Z,13.72
2017-10-01T00:50:45.342Z,13.72
2017-10-01T00:51:54.467Z,13.71
2017-10-01T00:53:00.600Z,13.52
2017-10-01T00:54:06.851Z,13.64
2017-10-01T00:55:12.306Z,13.69
2017-10-01T00:56:17.540Z,13.74
2017-10-01T00:57:23.659Z,13.71
2017-10-01T00:58:29.556Z,13.74
2017-10-01T00:59:36.798Z,13.81
2017-10-01T01:00:44.633Z,13.81
2017-10-01T01:01:49.360Z,13.79
2017-10-01T01:02:56.716Z,13.81
2017-10-01T01:04:03.426Z,13.71
2017-10-01T01:05:10.234Z,13.72
2017-10-01T01:06:16.246Z,13.67
2017-10-01T01:07:22.203Z,13.70
2017-10-01T01:08:29.277Z,13.75
2017-10-01T01:09:35.809Z,13.74
2017-10-01T01:10:41.309Z,13.77
2017-10-01T01:11:47.368Z,13.78
2017-10-01T01:12:53.337Z,13.79
2017-10-01T01:13:59.444Z,13.81
2017-10-01T01:15:05.002Z,13.80
2017-10-01T01:16:12.079Z,13.85
2017-10-01T01:17:17.884Z,13.85
2017-10-01T01:18:23.295Z,13.81
2017-10-01T01:19:28.771Z,13.82
2017-10-01T01:20:34.162Z,13.84
2017-10-01T01:21:41.142Z,13.81
2017-10-01T01:22:49.646Z,13.58
2017-10-01T01:23:55.410Z,13.57
2017-10-01T01:25:05.128Z,13.71
2017-10-01T01:26:10.905Z,13.69
2017-10-01T01:27:17.151Z,13.72
2017-10-01T01:28:22.544Z,13.69
2017-10-01T01:29:28.027Z,13.67
2017-10-01T01:30:33.428Z,13.74
2017-10-01T01:31:40.456Z,13.72
2017-10-01T01:32:46.831Z,13.61
2017-10-01T01:33:52.243Z,13.58
2017-10-01T01:34:58.355Z,13.59
2017-10-01T01:36:04.108Z,13.67
2017-10-01T01:37:09.905Z,13.65
2017-10-01T01:38:16.109Z,13.56
2017-10-01T01:39:22.840Z,13.59
2017-10-01T01:40:28.098Z,13.58
2017-10-01T01:41:33.567Z,13.63
2017-10-01T01:42:40.019Z,13.60
2017-10-01T01:43:45.302Z,13.58
2017-10-01T01:44:50.776Z,13.54
2017-10-01T01:45:57.588Z,13.60
2017-10-01T01:47:03.250Z,13.65
2017-10-01T01:48:10.490Z,13.65
2017-10-01T01:49:17.074Z,13.70
2017-10-01T01:50:22.401Z,13.68
2017-10-01T01:51:27.826Z,13.71
2017-10-01T01:52:34.469Z,13.56
2017-10-01T01:53:40.834Z,13.62
2017-10-01T01:54:46.067Z,13.71
2017-10-01T01:55:51.416Z,13.68
2017-10-01T01:56:57.179Z,13.43
2017-10-01T01:58:02.420Z,13.44
2017-10-01T01:59:07.625Z,13.49
2017-10-01T02:00:12.956Z,13.48
2017-10-01T02:01:18.227Z,13.37
2017-10-01T02:02:23.672Z,13.40
2017-10-01T02:03:29.067Z,13.36
2017-10-01T02:04:35.528Z,13.27
2017-10-01T02:05:41.755Z,13.25
2017-10-01T02:06:47.557Z,13.32
2017-10-01T02:07:52.975Z,13.29
2017-10-01T02:08:58.520Z,13.42
2017-10-01T02:10:04.000Z,13.45
2017-10-01T02:11:09.641Z,13.45
2017-10-01T02:12:14.911Z,13.39
2017-10-01T02:13:20.147Z,13.48
2017-10-01T02:14:25.662Z,13.37
2017-10-01T02:15:31.178Z,13.34
2017-10-01T02:16:36.605Z,13.45
2017-10-01T02:17:42.013Z,13.45
2017-10-01T02:18:48.124Z,13.28
2017-10-01T02:19:54.089Z,13.27
2017-10-01T02:21:00.589Z,13.31
2017-10-01T02:22:06.735Z,13.29
2017-10-01T02:23:12.512Z,13.42
2017-10-01T02:24:19.024Z,13.51
2017-10-01T02:25:25.221Z,13.59
2017-10-01T02:26:31.418Z,13.59
2017-10-01T02:27:37.218Z,13.53
2017-10-01T02:28:42.655Z,13.29
2017-10-01T02:29:48.062Z,13.23
2017-10-01T02:30:53.505Z,13.29
2017-10-01T02:31:58.975Z,13.35
2017-10-01T02:33:04.488Z,13.44
2017-10-01T02:34:09.944Z,13.33
2017-10-01T02:35:16.862Z,13.34
2017-10-01T02:36:22.935Z,13.40
2017-10-01T02:37:28.358Z,13.44
2017-10-01T02:38:33.856Z,13.44
2017-10-01T02:39:40.216Z,13.30
2017-10-01T02:40:45.664Z,13.38
2017-10-01T02:41:51.424Z,13.42
2017-10-01T02:42:57.124Z,13.41
2017-10-01T02:44:02.776Z,13.44
2017-10-01T02:45:08.239Z,13.26
2017-10-01T02:46:13.741Z,13.15
2017-10-01T02:47:19.576Z,13.20
2017-10-01T02:48:25.085Z,13.13
2017-10-01T02:49:30.341Z,13.12
2017-10-01T02:50:36.760Z,13.12
2017-10-01T02:51:42.753Z,13.06
2017-10-01T02:52:48.923Z,13.02
2017-10-01T02:53:54.364Z,13.06
2017-10-01T02:55:00.192Z,12.98
2017-10-01T02:56:06.727Z,13.08
2017-10-01T02:57:12.953Z,13.15
2017-10-01T02:58:18.740Z,13.13
2017-10-01T02:59:24.168Z,13.09
2017-10-01T03:00:29.667Z,13.08
2017-10-01T03:01:35.732Z,13.10
2017-10-01T03:02:40.957Z,13.10
2017-10-01T03:03:46.480Z,13.05
2017-10-01T03:04:51.730Z,13.00
2017-10-01T03:05:57.396Z,12.90
2017-10-01T03:07:03.171Z,12.99
2017-10-01T03:08:09.784Z,12.97
2017-10-01T03:09:14.977Z,13.04
2017-10-01T03:10:20.415Z,13.03
2017-10-01T03:11:25.618Z,13.02
2017-10-01T03:12:31.270Z,13.08
2017-10-01T03:13:36.744Z,13.14
2017-10-01T03:14:42.176Z,12.97
2017-10-01T03:15:47.400Z,13.03
2017-10-01T03:16:53.596Z,13.13
2017-10-01T03:17:59.156Z,13.11
2017-10-01T03:19:05.711Z,13.08
2017-10-01T03:20:12.006Z,13.08
2017-10-01T03:21:17.636Z,13.09
2017-10-01T03:22:26.049Z,13.14
2017-10-01T03:23:32.219Z,13.16
2017-10-01T03:24:38.654Z,13.16
2017-10-01T03:25:44.428Z,12.91
2017-10-01T03:26:50.623Z,12.79
2017-10-01T03:27:56.978Z,12.86
2017-10-01T03:29:02.919Z,12.79
2017-10-01T03:30:08.498Z,12.88
2017-10-01T03:31:14.007Z,12.74
2017-10-01T03:32:19.504Z,12.77
2017-10-01T03:33:24.895Z,12.75
2017-10-01T03:34:31.095Z,12.67
2017-10-01T03:35:37.913Z,12.59
2017-10-01T03:36:43.440Z,12.63
2017-10-01T03:37:48.906Z,12.66
2017-10-01T03:38:54.547Z,12.70
2017-10-01T03:40:02.265Z,12.63
2017-10-01T03:41:08.522Z,12.61
2017-10-01T03:42:15.147Z,12.64
2017-10-01T03:43:22.145Z,12.65
2017-10-01T03:44:27.711Z,12.67
2017-10-01T03:45:33.765Z,12.68
2017-10-01T03:46:39.028Z,12.73
2017-10-01T03:47:44.556Z,12.57
2017-10-01T03:48:50.555Z,12.61
2017-10-01T03:49:57.174Z,12.65
2017-10-01T03:51:02.772Z,12.72
2017-10-01T03:52:11.478Z,12.62
2017-10-01T03:53:18.490Z,12.57
2017-10-01T03:54:24.649Z,12.61
2017-10-01T03:55:30.119Z,12.68
2017-10-01T03:56:36.135Z,12.72
2017-10-01T03:57:42.376Z,12.69
2017-10-01T03:58:48.111Z,12.58
2017-10-01T03:59:53.970Z,12.58
2017-10-01T04:01:00.613Z,12.68
2017-10-01T04:02:06.812Z,12.71
2017-10-01T04:03:13.070Z,12.62
2017-10-01T04:04:23.117Z,12.69
2017-10-01T04:05:30.253Z,12.69
2017-10-01T04:06:37.378Z,12.58
2017-10-01T04:07:43.942Z,12.52
2017-10-01T04:08:50.035Z,12.58
2017-10-01T04:09:57.806Z,12.64
2017-10-01T04:11:04.103Z,12.56
2017-10-01T04:12:10.779Z,12.62
2017-10-01T04:13:19.498Z,12.65
2017-10-01T04:14:27.119Z,12.68
2017-10-01T04:15:34.115Z,12.64
2017-10-01T04:16:41.291Z,12.61
2017-10-01T04:17:47.590Z,12.62
2017-10-01T04:18:53.855Z,12.60
2017-10-01T04:20:00.607Z,12.61
2017-10-01T04:21:06.754Z,12.50
2017-10-01T04:22:13.114Z,12.42
2017-10-01T04:23:19.271Z,12.43
2017-10-01T04:24:25.539Z,12.49
2017-10-01T04:25:32.952Z,12.52
2017-10-01T04:26:38.957Z,12.51
2017-10-01T04:27:45.509Z,12.54
2017-10-01T04:28:52.188Z,12.50
2017-10-01T04:29:59.847Z,12.48
2017-10-01T04:31:07.007Z,12.50
2017-10-01T04:32:14.446Z,12.58
2017-10-01T04:33:22.267Z,12.61
2017-10-01T04:34:30.214Z,12.60
2017-10-01T04:35:38.768Z,12.46
2017-10-01T04:36:46.016Z,12.42
2017-10-01T04:37:53.772Z,12.44
2017-10-01T04:39:00.833Z,12.36
2017-10-01T04:40:08.665Z,12.30
2017-10-01T04:41:16.143Z,12.32
2017-10-01T04:42:24.538Z,12.36
2017-10-01T04:43:31.670Z,12.46
2017-10-01T04:44:38.926Z,12.52
2017-10-01T04:45:46.094Z,12.54
2017-10-01T04:46:54.336Z,12.61
2017-10-01T04:48:01.618Z,12.58
2017-10-01T04:49:10.351Z,12.60
2017-10-01T04:50:17.832Z,12.48
2017-10-01T04:51:26.149Z,12.44
2017-10-01T04:52:34.633Z,12.51
2017-10-01T04:53:42.853Z,12.39
2017-10-01T04:54:50.233Z,12.41
2017-10-01T04:55:58.146Z,12.50
2017-10-01T04:57:05.896Z,12.53
2017-10-01T04:58:13.466Z,12.51
2017-10-01T04:59:22.344Z,12.53
2017-10-01T05:00:29.803Z,12.47
2017-10-01T05:01:37.603Z,12.51
2017-10-01T05:02:48.046Z,12.55
2017-10-01T05:03:55.371Z,12.58
2017-10-01T05:05:03.576Z,12.55
2017-10-01T05:06:11.249Z,12.51
2017-10-01T05:07:18.500Z,12.53
2017-10-01T05:08:26.119Z,12.52
2017-10-01T05:09:34.547Z,12.45
2017-10-01T05:10:42.943Z,12.36
2017-10-01T05:11:51.088Z,12.37
2017-10-01T05:12:57.570Z,12.19
2017-10-01T05:14:07.350Z,12.24
2017-10-01T05:15:15.026Z,12.31
2017-10-01T05:16:22.000Z,12.15
2017-10-01T05:17:30.603Z,12.18
2017-10-01T05:18:37.272Z,12.10
2017-10-01T05:19:44.328Z,12.01
2017-10-01T05:20:51.634Z,11.96
2017-10-01T05:22:01.842Z,12.02
2017-10-01T05:23:08.596Z,12.09
2017-10-01T05:24:16.448Z,12.03
2017-10-01T05:25:24.799Z,12.06
2017-10-01T05:26:32.319Z,12.10
2017-10-01T05:27:43.728Z,11.97
2017-10-01T05:28:52.350Z,11.96
2017-10-01T05:30:00.543Z,11.98
2017-10-01T05:31:08.500Z,11.88
2017-10-01T05:32:16.904Z,11.89
2017-10-01T05:33:24.696Z,11.85
2017-10-01T05:34:38.076Z,11.80
2017-10-01T05:35:47.541Z,11.77
2017-10-01T05:36:54.720Z,11.79
2017-10-01T05:38:03.652Z,11.82
2017-10-01T05:39:11.224Z,11.88
2017-10-01T05:40:19.310Z,11.78
2017-10-01T05:41:26.889Z,11.79
2017-10-01T05:42:35.793Z,11.87
2017-10-01T05:43:42.976Z,11.82
2017-10-01T05:44:51.304Z,11.91
2017-10-01T05:45:58.780Z,11.92
2017-10-01T05:47:06.010Z,11.91
2017-10-01T05:48:17.966Z,11.96
2017-10-01T05:49:26.635Z,11.78
2017-10-01T05:50:33.952Z,11.80
2017-10-01T05:51:43.660Z,11.74
2017-10-01T05:52:51.152Z,11.75
2017-10-01T05:53:58.746Z,11.78
2017-10-01T05:55:07.495Z,11.84
2017-10-01T05:56:17.042Z,11.76
2017-10-01T05:57:24.580Z,11.69
2017-10-01T05:58:32.832Z,11.66
2017-10-01T05:59:40.831Z,11.70
2017-10-01T06:00:48.391Z,11.69
2017-10-01T06:01:56.106Z,11.68
2017-10-01T06:03:04.805Z,11.67
2017-10-01T06:04:13.553Z,11.67
2017-10-01T06:05:20.854Z,11.68
2017-10-01T06:06:28.620Z,11.79
2017-10-01T06:07:36.686Z,11.77
2017-10-01T06:08:44.306Z,11.77
2017-10-01T06:09:50.894Z,11.83
2017-10-01T06:10:57.088Z,11.85
2017-10-01T06:12:03.217Z,11.87
2017-10-01T06:13:10.017Z,11.98
2017-10-01T06:14:16.140Z,12.03
2017-10-01T06:15:22.356Z,12.03
2017-10-01T06:16:29.567Z,12.00
2017-10-01T06:17:35.827Z,12.06
2017-10-01T06:18:42.574Z,12.06
2017-10-01T06:19:48.549Z,12.00
2017-10-01T06:20:55.684Z,11.90
2017-10-01T06:22:01.829Z,11.88
2017-10-01T06:23:08.000Z,11.95
2017-10-01T06:24:14.158Z,12.01
2017-10-01T06:25:20.280Z,12.07
2017-10-01T06:26:29.302Z,12.00
2017-10-01T06:27:35.908Z,11.96
2017-10-01T06:28:42.750Z,11.97
2017-10-01T06:29:52.952Z,12.02
2017-10-01T06:30:59.592Z,11.91
2017-10-01T06:32:05.825Z,11.85
2017-10-01T06:33:12.707Z,11.84
2017-10-01T06:34:19.253Z,11.87
2017-10-01T06:35:25.925Z,11.77
2017-10-01T06:36:32.100Z,11.76
2017-10-01T06:37:38.258Z,11.86
2017-10-01T06:38:44.555Z,11.92
2017-10-01T06:39:50.787Z,11.89
2017-10-01T06:40:56.966Z,11.95
2017-10-01T06:42:03.283Z,12.02
2017-10-01T06:43:09.614Z,12.06
2017-10-01T06:44:15.875Z,12.10
2017-10-01T06:45:22.135Z,11.99
2017-10-01T06:46:41.624Z,11.91
2017-10-01T06:47:47.842Z,11.98
2017-10-01T06:48:54.016Z,12.04
2017-10-01T06:51:39.459Z,11.90
2017-10-01T06:52:58.657Z,11.88
2017-10-01T06:54:20.719Z,11.95
2017-10-01T06:55:31.542Z,12.03
2017-10-01T07:00:03.641Z,11.98
2017-10-01T07:01:10.763Z,12.00
2017-10-01T07:02:18.584Z,11.98
2017-10-01T07:03:26.864Z,11.97
2017-10-01T07:05:05.710Z,11.97
2017-10-01T07:06:18.171Z,11.94
2017-10-01T07:07:23.939Z,11.95
2017-10-01T07:08:30.138Z,12.03
2017-10-01T07:09:43.698Z,12.10
2017-10-01T07:10:56.069Z,12.18
2017-10-01T07:12:02.653Z,12.16
2017-10-01T07:13:08.980Z,12.13
2017-10-01T07:14:15.028Z,12.07
2017-10-01T07:15:21.184Z,12.05
2017-10-01T07:16:28.593Z,11.96
2017-10-01T07:17:35.513Z,12.04
2017-10-01T07:18:42.397Z,11.89
2017-10-01T07:19:48.583Z,11.96
2017-10-01T07:20:54.804Z,11.94
2017-10-01T07:22:04.691Z,11.97
2017-10-01T07:23:11.043Z,12.07
2017-10-01T07:24:17.273Z,12.09
2017-10-01T07:25:23.666Z,12.07
2017-10-01T07:26:30.019Z,12.08
2017-10-01T07:27:35.831Z,12.07
2017-10-01T07:28:42.295Z,12.14
2017-10-01T07:29:48.846Z,12.22
2017-10-01T07:30:55.742Z,12.24
2017-10-01T07:32:01.918Z,12.13
2017-10-01T07:33:08.476Z,12.18
2017-10-01T07:34:14.732Z,12.16
2017-10-01T07:35:20.916Z,12.18
2017-10-01T07:36:27.517Z,12.23
2017-10-01T07:37:34.304Z,12.29
2017-10-01T07:38:40.594Z,12.39
2017-10-01T07:39:47.543Z,12.17
2017-10-01T07:40:53.357Z,12.14
2017-10-01T07:41:59.532Z,12.08
2017-10-01T07:43:05.650Z,12.17
2017-10-01T07:44:12.103Z,12.30
2017-10-01T07:45:17.633Z,12.30
2017-10-01T07:46:23.054Z,12.24
2017-10-01T07:47:30.073Z,12.22
2017-10-01T07:48:36.286Z,12.29
2017-10-01T07:49:42.548Z,12.38
2017-10-01T07:50:48.984Z,12.30
2017-10-01T07:51:55.107Z,12.29
2017-10-01T07:53:01.386Z,12.20
2017-10-01T07:54:08.307Z,12.21
2017-10-01T07:55:15.337Z,12.12
2017-10-01T07:56:21.938Z,12.14
2017-10-01T07:57:28.948Z,12.12
2017-10-01T07:58:35.294Z,12.24
2017-10-01T07:59:43.399Z,12.33
2017-10-01T08:00:49.612Z,12.14
2017-10-01T08:01:55.624Z,12.07
2017-10-01T08:03:01.875Z,12.06
2017-10-01T08:04:09.105Z,12.02
2017-10-01T08:05:15.376Z,12.07
2017-10-01T08:06:21.591Z,12.17
2017-10-01T08:07:28.081Z,12.21
2017-10-01T08:08:34.194Z,12.34
2017-10-01T08:09:39.693Z,12.33
2017-10-01T08:10:49.686Z,12.39
2017-10-01T08:11:55.951Z,12.41
2017-10-01T08:13:01.936Z,12.47
2017-10-01T08:14:08.308Z,12.62
2017-10-01T08:15:14.555Z,12.67
2017-10-01T08:16:20.770Z,12.77
2017-10-01T08:17:26.939Z,12.68
2017-10-01T08:18:33.160Z,12.62
2017-10-01T08:19:39.659Z,12.58
2017-10-01T08:20:46.379Z,12.66
2017-10-01T08:21:52.173Z,12.79
2017-10-01T08:22:58.388Z,12.79
2017-10-01T08:24:04.505Z,12.82
2017-10-01T08:25:10.713Z,12.90
2017-10-01T08:26:17.527Z,13.00
2017-10-01T08:27:25.480Z,13.04
2017-10-01T08:28:31.700Z,13.08
2017-10-01T08:29:38.424Z,13.01
2017-10-01T08:30:44.624Z,12.69
2017-10-01T08:31:50.893Z,12.54
2017-10-01T08:32:57.072Z,12.52
2017-10-01T08:34:03.277Z,12.48
2017-10-01T08:35:09.458Z,12.50
2017-10-01T08:36:15.692Z,12.48
2017-10-01T08:37:24.295Z,12.36
2017-10-01T08:38:30.810Z,12.47
2017-10-01T08:39:37.430Z,12.45
2017-10-01T08:40:43.726Z,12.40
2017-10-01T08:41:49.938Z,12.51
2017-10-01T08:42:56.479Z,12.57
2017-10-01T08:44:02.762Z,12.51
2017-10-01T08:45:08.924Z,12.57
2017-10-01T08:46:14.322Z,12.68
2017-10-01T08:47:20.636Z,12.85
2017-10-01T08:48:29.147Z,12.73
2017-10-01T08:49:36.231Z,12.64
2017-10-01T08:50:42.727Z,12.68
2017-10-01T08:51:49.570Z,12.60
2017-10-01T08:52:56.141Z,12.64
2017-10-01T08:54:02.315Z,12.63
2017-10-01T08:55:08.501Z,12.62
2017-10-01T08:56:15.291Z,12.75
2017-10-01T08:57:21.949Z,12.78
2017-10-01T08:58:28.240Z,12.78
2017-10-01T08:59:35.625Z,12.78
2017-10-01T09:00:41.838Z,12.88
2017-10-01T09:01:48.021Z,12.91
2017-10-01T09:02:54.551Z,12.80
2017-10-01T09:04:03.091Z,12.82
2017-10-01T09:05:09.334Z,12.94
2017-10-01T09:06:16.207Z,13.06
2017-10-01T09:07:22.419Z,13.06
2017-10-01T09:08:28.837Z,13.12
2017-10-01T09:09:35.511Z,13.08
2017-10-01T09:10:42.985Z,13.18
2017-10-01T09:11:50.173Z,13.22
2017-10-01T09:12:58.515Z,13.12
2017-10-01T09:14:05.072Z,13.08
2017-10-01T09:15:15.644Z,13.08
2017-10-01T09:16:21.174Z,13.10
2017-10-01T09:17:27.412Z,12.94
2017-10-01T09:18:35.691Z,12.87
2017-10-01T09:19:41.556Z,13.08
2017-10-01T09:20:48.480Z,13.21
2017-10-01T09:21:55.805Z,13.18
2017-10-01T09:23:02.818Z,13.28
2017-10-01T09:24:08.806Z,13.28
2017-10-01T09:25:15.078Z,13.07
2017-10-01T09:26:21.036Z,13.08
2017-10-01T09:27:28.746Z,13.22
2017-10-01T09:28:35.100Z,13.18
2017-10-01T09:29:41.243Z,13.10
2017-10-01T09:30:48.193Z,13.04
2017-10-01T09:31:55.474Z,12.99
2017-10-01T09:33:04.544Z,13.08
2017-10-01T09:34:11.454Z,12.98
2017-10-01T09:35:17.511Z,13.02
2017-10-01T09:36:25.124Z,12.97
2017-10-01T09:37:32.679Z,13.07
2017-10-01T09:38:41.560Z,13.38
2017-10-01T09:39:48.564Z,13.48
2017-10-01T09:40:55.605Z,13.61
2017-10-01T09:42:02.617Z,13.75
2017-10-01T09:43:08.784Z,13.99
2017-10-01T09:44:14.976Z,13.96
2017-10-01T09:45:25.902Z,13.87
2017-10-01T09:46:32.199Z,13.63
2017-10-01T09:47:38.360Z,13.87
2017-10-01T09:48:44.617Z,14.04
2017-10-01T09:49:50.732Z,14.10
2017-10-01T09:50:57.633Z,14.26
2017-10-01T09:52:03.846Z,14.30
2017-10-01T09:53:10.315Z,14.09
2017-10-01T09:54:16.496Z,13.80
2017-10-01T09:55:22.692Z,13.73
2017-10-01T09:56:29.783Z,13.92
2017-10-01T09:57:36.597Z,13.83
2017-10-01T09:58:43.006Z,13.67
2017-10-01T09:59:49.192Z,13.69
2017-10-01T10:00:55.997Z,13.90
2017-10-01T10:02:02.238Z,14.05
2017-10-01T10:03:08.508Z,14.09
2017-10-01T10:04:14.656Z,14.13
2017-10-01T10:05:20.833Z,14.22
2017-10-01T10:06:26.940Z,14.37
2017-10-01T10:07:33.042Z,14.33
2017-10-01T10:08:39.164Z,13.97
2017-10-01T10:09:45.389Z,13.83
2017-10-01T10:10:51.575Z,13.72
2017-10-01T10:11:57.776Z,13.71
2017-10-01T10:13:04.564Z,13.60
2017-10-01T10:14:10.755Z,13.56
2017-10-01T10:15:16.932Z,13.81
2017-10-01T10:16:23.138Z,13.95
2017-10-01T10:17:29.338Z,13.78
2017-10-01T10:18:35.554Z,13.80
2017-10-01T10:19:41.888Z,13.89
2017-10-01T10:20:48.324Z,13.95
2017-10-01T10:21:55.072Z,14.04
2017-10-01T10:23:01.894Z,13.98
2017-10-01T10:24:08.039Z,14.15
2017-10-01T10:25:14.407Z,14.24
2017-10-01T10:26:20.562Z,13.90
2017-10-01T10:27:27.303Z,14.02
2017-10-01T10:28:33.450Z,13.86
2017-10-01T10:29:39.551Z,13.87
2017-10-01T10:30:46.423Z,13.86
2017-10-01T10:31:52.619Z,13.83
2017-10-01T10:32:58.837Z,13.79
2017-10-01T10:34:05.040Z,13.74
2017-10-01T10:35:11.157Z,13.86
2017-10-01T10:36:17.379Z,13.90
2017-10-01T10:37:23.579Z,14.14
2017-10-01T10:38:29.795Z,14.24
2017-10-01T10:39:36.184Z,14.03
2017-10-01T10:40:42.309Z,14.00
2017-10-01T10:41:48.335Z,14.05
2017-10-01T10:42:54.526Z,14.12
2017-10-01T10:44:00.727Z,14.25
2017-10-01T10:45:06.827Z,14.12
2017-10-01T10:46:13.063Z,14.46
2017-10-01T10:47:19.294Z,14.64
2017-10-01T10:48:25.508Z,14.84
2017-10-01T10:49:32.128Z,15.03
2017-10-01T10:50:38.283Z,15.16
2017-10-01T10:51:44.398Z,15.18
2017-10-01T10:52:50.520Z,15.30
2017-10-01T10:53:56.712Z,15.36
2017-10-01T10:55:02.981Z,15.42
2017-10-01T10:56:09.136Z,15.54
2017-10-01T10:57:15.263Z,15.35
2017-10-01T10:58:21.455Z,15.32
2017-10-01T10:59:27.732Z,14.99
2017-10-01T11:00:33.886Z,15.15
2017-10-01T11:01:40.018Z,15.24
2017-10-01T11:02:46.274Z,15.08
2017-10-01T11:03:52.499Z,14.60
2017-10-01T11:04:58.713Z,14.98
2017-10-01T11:06:04.959Z,15.35
2017-10-01T11:07:11.599Z,15.53
2017-10-01T11:08:17.798Z,15.37
2017-10-01T11:09:23.969Z,15.57
2017-10-01T11:10:30.168Z,15.21
2017-10-01T11:11:36.464Z,15.46
2017-10-01T11:12:42.580Z,15.61
2017-10-01T11:13:48.808Z,15.36
2017-10-01T11:14:55.003Z,15.39
2017-10-01T11:16:01.085Z,15.51
2017-10-01T11:17:07.690Z,15.61
2017-10-01T11:18:13.844Z,15.43
2017-10-01T11:19:20.002Z,15.06
2017-10-01T11:20:26.146Z,15.17
2017-10-01T11:21:32.264Z,15.45
2017-10-01T11:22:38.465Z,15.72
2017-10-01T11:23:44.613Z,15.50
2017-10-01T11:24:50.835Z,15.72
2017-10-01T11:25:56.996Z,15.45
2017-10-01T11:27:03.208Z,15.49
2017-10-01T11:28:11.349Z,15.27
2017-10-01T11:29:17.473Z,15.13
2017-10-01T11:30:23.725Z,15.31
2017-10-01T11:31:29.995Z,15.34
2017-10-01T11:32:37.208Z,15.33
2017-10-01T11:33:43.275Z,15.53
2017-10-01T11:34:49.440Z,15.68
2017-10-01T11:35:55.561Z,15.85
2017-10-01T11:37:01.768Z,15.89
2017-10-01T11:38:07.860Z,16.13
2017-10-01T11:39:13.964Z,16.27
2017-10-01T11:40:20.081Z,16.32
2017-10-01T11:41:26.307Z,16.50
2017-10-01T11:42:32.304Z,16.73
2017-10-01T11:43:38.386Z,16.76
2017-10-01T11:44:44.509Z,16.91
2017-10-01T11:45:50.766Z,16.78
2017-10-01T11:46:56.919Z,16.79
2017-10-01T11:48:03.032Z,16.99
2017-10-01T11:49:09.147Z,16.75
2017-10-01T11:50:15.344Z,16.55
2017-10-01T11:51:21.496Z,16.57
2017-10-01T11:52:27.667Z,16.23
2017-10-01T11:53:33.753Z,15.86
2017-10-01T11:54:39.884Z,15.71
2017-10-01T11:55:46.085Z,15.83
2017-10-01T11:56:52.234Z,16.25
2017-10-01T11:57:58.419Z,16.46
2017-10-01T11:59:04.838Z,16.48
2017-10-01T12:00:11.706Z,16.63
2017-10-01T12:01:18.664Z,16.74
2017-10-01T12:02:25.960Z,16.38
2017-10-01T12:03:32.108Z,16.05
2017-10-01T12:04:40.847Z,16.11
2017-10-01T12:05:47.103Z,16.17
2017-10-01T12:06:53.238Z,16.17
2017-10-01T12:08:00.085Z,16.19
2017-10-01T12:09:07.697Z,16.24
2017-10-01T12:10:13.892Z,16.25
2017-10-01T12:11:20.083Z,15.91
2017-10-01T12:12:26.437Z,15.84
2017-10-01T12:13:32.595Z,15.90
2017-10-01T12:14:38.704Z,15.87
2017-10-01T12:15:44.611Z,15.58
2017-10-01T12:16:52.180Z,15.51
2017-10-01T12:17:58.520Z,15.38
2017-10-01T12:19:04.670Z,15.50
2017-10-01T12:20:10.783Z,15.66
2017-10-01T12:21:16.897Z,15.85
2017-10-01T12:22:23.003Z,15.72
2017-10-01T12:23:29.340Z,15.73
2017-10-01T12:24:35.690Z,15.90
2017-10-01T12:25:42.280Z,16.01
2017-10-01T12:26:48.542Z,15.91
2017-10-01T12:27:55.155Z,15.99
2017-10-01T12:29:01.377Z,16.17
2017-10-01T12:30:07.480Z,16.30
2017-10-01T12:31:14.344Z,16.50
2017-10-01T12:32:22.209Z,16.70
2017-10-01T12:33:29.262Z,16.92
2017-10-01T12:34:36.436Z,17.09
2017-10-01T12:35:43.409Z,17.20
2017-10-01T12:36:50.611Z,17.59
2017-10-01T12:37:56.818Z,17.90
2017-10-01T12:39:03.043Z,18.12
2017-10-01T12:40:09.061Z,18.37
2017-10-01T12:41:15.525Z,18.51
2017-10-01T12:42:22.905Z,18.75
2017-10-01T12:43:30.744Z,18.76
2017-10-01T12:44:38.548Z,18.72
2017-10-01T12:45:44.708Z,18.73
2017-10-01T12:46:51.844Z,18.94
2017-10-01T12:47:58.003Z,18.99
2017-10-01T12:49:04.476Z,18.92
2017-10-01T12:50:11.119Z,18.61
2017-10-01T12:51:17.244Z,18.81
2017-10-01T12:52:23.554Z,19.11
2017-10-01T12:53:29.671Z,19.39
2017-10-01T12:54:35.746Z,19.58
2017-10-01T12:55:42.544Z,19.39
2017-10-01T12:56:48.747Z,18.90
2017-10-01T12:57:55.727Z,18.72
2017-10-01T12:59:01.903Z,18.66
2017-10-01T13:00:09.443Z,19.07
2017-10-01T13:01:33.445Z,19.56
2017-10-01T13:02:52.811Z,20.33
2017-10-01T13:03:58.996Z,19.97
2017-10-01T13:05:05.071Z,18.86
2017-10-01T13:06:11.235Z,17.94
2017-10-01T13:07:17.600Z,18.25
2017-10-01T13:08:23.730Z,18.27
2017-10-01T13:09:29.827Z,18.34
2017-10-01T13:10:36.124Z,18.48
2017-10-01T13:11:42.520Z,18.50
2017-10-01T13:12:48.870Z,17.99
2017-10-01T13:13:55.388Z,18.03
2017-10-01T13:15:03.788Z,18.15
2017-10-01T13:20:05.075Z,18.01
2017-10-01T13:21:11.296Z,17.72
2017-10-01T13:22:17.581Z,17.69
2017-10-01T13:23:23.636Z,17.55
2017-10-01T13:24:29.683Z,17.18
2017-10-01T13:25:35.741Z,17.15
2017-10-01T13:26:41.864Z,17.13
2017-10-01T13:27:47.944Z,16.74
2017-10-01T13:28:53.986Z,16.57
2017-10-01T13:30:00.025Z,16.58
2017-10-01T13:31:06.117Z,16.40
2017-10-01T13:32:12.009Z,16.16
2017-10-01T13:33:18.133Z,16.14
2017-10-01T13:34:26.624Z,16.26
2017-10-01T13:35:32.685Z,16.43
2017-10-01T13:36:38.840Z,16.58
2017-10-01T13:37:46.135Z,16.63
2017-10-01T13:38:52.316Z,16.71
2017-10-01T13:39:58.454Z,16.90
2017-10-01T13:41:04.521Z,16.92
2017-10-01T13:42:10.606Z,17.05
2017-10-01T13:43:16.664Z,17.12
2017-10-01T13:44:22.760Z,17.22
2017-10-01T13:45:28.809Z,17.30
2017-10-01T13:46:34.860Z,17.26
2017-10-01T13:47:40.911Z,17.20
2017-10-01T13:48:48.790Z,17.25
2017-10-01T13:49:54.872Z,17.23
2017-10-01T13:51:00.938Z,17.29
2017-10-01T13:52:07.021Z,17.31
2017-10-01T13:53:13.215Z,17.15
2017-10-01T13:54:19.356Z,17.15
2017-10-01T13:55:25.520Z,17.05
2017-10-01T13:56:31.588Z,17.12
2017-10-01T13:57:37.669Z,17.20
2017-10-01T13:58:43.747Z,17.16
2017-10-01T13:59:49.799Z,17.09
2017-10-01T14:00:55.974Z,17.04
2017-10-01T14:02:02.261Z,16.88
2017-10-01T14:03:08.330Z,16.69
2017-10-01T14:04:14.510Z,16.79
2017-10-01T14:05:25.916Z,16.80
2017-10-01T14:06:31.989Z,16.78
2017-10-01T14:07:38.045Z,16.75
2017-10-01T14:08:44.110Z,16.78
2017-10-01T14:09:50.186Z,16.90
2017-10-01T14:10:56.258Z,16.91
2017-10-01T14:12:05.334Z,16.84
2017-10-01T14:13:11.409Z,16.96
2017-10-01T14:14:17.459Z,17.06
2017-10-01T14:15:23.646Z,17.09
2017-10-01T14:16:30.196Z,16.98
2017-10-01T14:17:36.419Z,16.93
2017-10-01T14:18:42.485Z,16.93
2017-10-01T14:19:48.557Z,16.80
2017-10-01T14:20:54.621Z,16.79
2017-10-01T14:22:00.671Z,16.98
2017-10-01T14:23:06.774Z,17.13
2017-10-01T14:24:12.845Z,17.33
2017-10-01T14:25:18.930Z,17.43
2017-10-01T14:26:24.995Z,17.48
2017-10-01T14:27:33.103Z,17.51
2017-10-01T14:28:39.318Z,17.45